sensor_id;sensor_type;location;lat;lon;timestamp;P1;durP1;ratioP1;P2;durP2;ratioP2
22470;SDS011;11402;51.374;6.594;2022-09-06T00:00:05;8.65;;;2.83;;
22470;SDS011;11402;51.374;6.594;2022-09-06T00:02:34;8.95;;;2.78;;
22470;SDS011;11402;51.374;6.594;2022-09-06T00:05:00;9.93;;;2.80;;
22470;SDS011;11402;51.374;6.594;2022-09-06T00:07:27;7.93;;;2.75;;
22470;SDS011;11402;51.374;6.594;2022-09-06T00:09:52;5.72;;;2.90;;
22470;SDS011;11402;51.374;6.594;2022-09-06T00:12:18;6.47;;;2.70;;
22470;SDS011;11402;51.374;6.594;2022-09-06T00:14:44;6.13;;;2.53;;
22470;SDS011;11402;51.374;6.594;2022-09-06T00:17:10;4.03;;;2.53;;
22470;SDS011;11402;51.374;6.594;2022-09-06T00:19:36;7.57;;;2.65;;
22470;SDS011;11402;51.374;6.594;2022-09-06T00:22:01;11.05;;;2.90;;
22470;SDS011;11402;51.374;6.594;2022-09-06T00:24:27;5.50;;;2.42;;
22470;SDS011;11402;51.374;6.594;2022-09-06T00:26:53;5.68;;;2.40;;
22470;SDS011;11402;51.374;6.594;2022-09-06T00:29:18;4.60;;;2.38;;
22470;SDS011;11402;51.374;6.594;2022-09-06T00:31:44;7.15;;;2.38;;
22470;SDS011;11402;51.374;6.594;2022-09-06T00:34:09;5.85;;;2.25;;
22470;SDS011;11402;51.374;6.594;2022-09-06T00:36:35;9.10;;;2.90;;
22470;SDS011;11402;51.374;6.594;2022-09-06T00:39:00;7.57;;;2.70;;
22470;SDS011;11402;51.374;6.594;2022-09-06T00:41:26;9.50;;;2.65;;
22470;SDS011;11402;51.374;6.594;2022-09-06T00:43:52;5.28;;;2.42;;
22470;SDS011;11402;51.374;6.594;2022-09-06T00:46:19;8.60;;;2.40;;
22470;SDS011;11402;51.374;6.594;2022-09-06T00:48:48;10.85;;;2.40;;
22470;SDS011;11402;51.374;6.594;2022-09-06T00:51:17;5.18;;;2.40;;
22470;SDS011;11402;51.374;6.594;2022-09-06T00:53:45;5.47;;;2.03;;
22470;SDS011;11402;51.374;6.594;2022-09-06T00:56:11;7.85;;;2.47;;
22470;SDS011;11402;51.374;6.594;2022-09-06T00:58:37;5.72;;;2.33;;
22470;SDS011;11402;51.374;6.594;2022-09-06T01:01:03;3.65;;;2.35;;
22470;SDS011;11402;51.374;6.594;2022-09-06T01:03:29;6.07;;;2.30;;
22470;SDS011;11402;51.374;6.594;2022-09-06T01:28:44;5.82;;;2.60;;
22470;SDS011;11402;51.374;6.594;2022-09-06T01:31:22;5.43;;;2.67;;
22470;SDS011;11402;51.374;6.594;2022-09-06T01:36:33;6.13;;;2.58;;
22470;SDS011;11402;51.374;6.594;2022-09-06T01:39:16;9.27;;;3.05;;
22470;SDS011;11402;51.374;6.594;2022-09-06T01:41:51;5.38;;;2.60;;
22470;SDS011;11402;51.374;6.594;2022-09-06T01:44:18;5.82;;;2.88;;
22470;SDS011;11402;51.374;6.594;2022-09-06T01:46:47;6.40;;;2.50;;
22470;SDS011;11402;51.374;6.594;2022-09-06T01:49:32;6.30;;;2.55;;
22470;SDS011;11402;51.374;6.594;2022-09-06T01:58:10;6.60;;;2.80;;
22470;SDS011;11402;51.374;6.594;2022-09-06T02:01:10;5.70;;;2.75;;
22470;SDS011;11402;51.374;6.594;2022-09-06T02:06:24;6.43;;;2.75;;
22470;SDS011;11402;51.374;6.594;2022-09-06T02:08:54;7.28;;;2.72;;
22470;SDS011;11402;51.374;6.594;2022-09-06T02:11:26;7.80;;;3.10;;
22470;SDS011;11402;51.374;6.594;2022-09-06T02:13:57;6.57;;;3.33;;
22470;SDS011;11402;51.374;6.594;2022-09-06T02:16:31;4.25;;;3.15;;
22470;SDS011;11402;51.374;6.594;2022-09-06T02:19:03;2.95;;;2.55;;
22470;SDS011;11402;51.374;6.594;2022-09-06T02:21:35;5.63;;;2.90;;
22470;SDS011;11402;51.374;6.594;2022-09-06T02:24:05;6.75;;;2.78;;
22470;SDS011;11402;51.374;6.594;2022-09-06T02:26:34;5.82;;;2.85;;
22470;SDS011;11402;51.374;6.594;2022-09-06T02:29:04;4.70;;;2.90;;
22470;SDS011;11402;51.374;6.594;2022-09-06T02:31:31;3.83;;;3.00;;
22470;SDS011;11402;51.374;6.594;2022-09-06T02:34:21;4.80;;;2.95;;
22470;SDS011;11402;51.374;6.594;2022-09-06T02:36:47;8.65;;;3.13;;
22470;SDS011;11402;51.374;6.594;2022-09-06T02:39:13;4.68;;;3.00;;
22470;SDS011;11402;51.374;6.594;2022-09-06T02:41:39;5.65;;;2.83;;
22470;SDS011;11402;51.374;6.594;2022-09-06T02:44:07;5.75;;;3.00;;
22470;SDS011;11402;51.374;6.594;2022-09-06T02:46:32;3.72;;;3.15;;
22470;SDS011;11402;51.374;6.594;2022-09-06T02:48:58;3.83;;;3.22;;
22470;SDS011;11402;51.374;6.594;2022-09-06T02:51:23;5.43;;;2.92;;
22470;SDS011;11402;51.374;6.594;2022-09-06T02:53:49;6.60;;;3.13;;
22470;SDS011;11402;51.374;6.594;2022-09-06T02:56:14;4.50;;;2.95;;
22470;SDS011;11402;51.374;6.594;2022-09-06T02:58:40;3.25;;;2.83;;
22470;SDS011;11402;51.374;6.594;2022-09-06T03:01:05;7.32;;;3.40;;
22470;SDS011;11402;51.374;6.594;2022-09-06T03:03:31;6.25;;;3.20;;
22470;SDS011;11402;51.374;6.594;2022-09-06T03:05:57;3.55;;;3.00;;
22470;SDS011;11402;51.374;6.594;2022-09-06T03:08:23;4.72;;;3.13;;
22470;SDS011;11402;51.374;6.594;2022-09-06T03:10:57;6.28;;;3.30;;
22470;SDS011;11402;51.374;6.594;2022-09-06T03:13:23;4.13;;;2.65;;
22470;SDS011;11402;51.374;6.594;2022-09-06T03:15:50;5.88;;;2.70;;
22470;SDS011;11402;51.374;6.594;2022-09-06T03:18:16;5.78;;;3.03;;
22470;SDS011;11402;51.374;6.594;2022-09-06T03:20:42;4.63;;;2.70;;
22470;SDS011;11402;51.374;6.594;2022-09-06T03:23:07;6.57;;;3.25;;
22470;SDS011;11402;51.374;6.594;2022-09-06T03:25:33;3.42;;;2.85;;
22470;SDS011;11402;51.374;6.594;2022-09-06T03:27:59;4.20;;;3.10;;
22470;SDS011;11402;51.374;6.594;2022-09-06T03:30:24;6.63;;;3.65;;
22470;SDS011;11402;51.374;6.594;2022-09-06T03:32:50;5.25;;;3.33;;
22470;SDS011;11402;51.374;6.594;2022-09-06T03:35:16;6.10;;;3.47;;
22470;SDS011;11402;51.374;6.594;2022-09-06T03:37:41;6.53;;;3.25;;
22470;SDS011;11402;51.374;6.594;2022-09-06T03:40:07;5.47;;;3.10;;
22470;SDS011;11402;51.374;6.594;2022-09-06T03:42:33;5.13;;;3.30;;
22470;SDS011;11402;51.374;6.594;2022-09-06T03:44:59;4.93;;;3.05;;
22470;SDS011;11402;51.374;6.594;2022-09-06T03:47:24;6.20;;;3.47;;
22470;SDS011;11402;51.374;6.594;2022-09-06T03:49:50;4.20;;;2.95;;
22470;SDS011;11402;51.374;6.594;2022-09-06T03:52:16;3.53;;;2.67;;
22470;SDS011;11402;51.374;6.594;2022-09-06T03:54:41;8.77;;;3.00;;
22470;SDS011;11402;51.374;6.594;2022-09-06T03:57:07;3.63;;;2.92;;
22470;SDS011;11402;51.374;6.594;2022-09-06T03:59:33;4.70;;;3.22;;
22470;SDS011;11402;51.374;6.594;2022-09-06T04:01:58;5.13;;;3.38;;
22470;SDS011;11402;51.374;6.594;2022-09-06T04:04:24;3.92;;;3.10;;
22470;SDS011;11402;51.374;6.594;2022-09-06T04:06:49;6.43;;;2.85;;
22470;SDS011;11402;51.374;6.594;2022-09-06T04:09:15;5.15;;;3.20;;
22470;SDS011;11402;51.374;6.594;2022-09-06T04:11:41;4.13;;;3.30;;
22470;SDS011;11402;51.374;6.594;2022-09-06T04:14:06;6.85;;;3.55;;
22470;SDS011;11402;51.374;6.594;2022-09-06T04:16:32;5.93;;;3.90;;
22470;SDS011;11402;51.374;6.594;2022-09-06T04:18:57;7.65;;;3.90;;
22470;SDS011;11402;51.374;6.594;2022-09-06T04:21:25;4.45;;;3.42;;
22470;SDS011;11402;51.374;6.594;2022-09-06T04:23:51;9.73;;;3.75;;
22470;SDS011;11402;51.374;6.594;2022-09-06T04:26:16;5.60;;;3.78;;
22470;SDS011;11402;51.374;6.594;2022-09-06T04:28:42;6.55;;;4.00;;
22470;SDS011;11402;51.374;6.594;2022-09-06T04:31:08;4.43;;;3.95;;
22470;SDS011;11402;51.374;6.594;2022-09-06T04:33:34;4.25;;;3.85;;
22470;SDS011;11402;51.374;6.594;2022-09-06T04:36:03;4.43;;;3.60;;
22470;SDS011;11402;51.374;6.594;2022-09-06T04:38:34;10.75;;;4.75;;
22470;SDS011;11402;51.374;6.594;2022-09-06T04:41:01;6.15;;;3.80;;
22470;SDS011;11402;51.374;6.594;2022-09-06T04:43:27;5.95;;;3.88;;
22470;SDS011;11402;51.374;6.594;2022-09-06T04:45:53;9.00;;;4.50;;
22470;SDS011;11402;51.374;6.594;2022-09-06T04:48:18;7.75;;;4.28;;
22470;SDS011;11402;51.374;6.594;2022-09-06T04:50:44;7.13;;;4.80;;
22470;SDS011;11402;51.374;6.594;2022-09-06T04:53:09;8.60;;;4.68;;
22470;SDS011;11402;51.374;6.594;2022-09-06T04:55:35;6.18;;;4.80;;
22470;SDS011;11402;51.374;6.594;2022-09-06T04:58:02;7.70;;;4.53;;
22470;SDS011;11402;51.374;6.594;2022-09-06T05:00:29;7.35;;;4.45;;
22470;SDS011;11402;51.374;6.594;2022-09-06T05:02:57;10.85;;;4.63;;
22470;SDS011;11402;51.374;6.594;2022-09-06T05:05:23;8.13;;;4.65;;
22470;SDS011;11402;51.374;6.594;2022-09-06T05:07:52;8.30;;;4.68;;
22470;SDS011;11402;51.374;6.594;2022-09-06T05:10:18;6.93;;;4.80;;
22470;SDS011;11402;51.374;6.594;2022-09-06T05:12:46;9.23;;;4.82;;
22470;SDS011;11402;51.374;6.594;2022-09-06T05:15:13;6.22;;;5.13;;
22470;SDS011;11402;51.374;6.594;2022-09-06T05:17:39;7.60;;;4.90;;
22470;SDS011;11402;51.374;6.594;2022-09-06T05:20:05;7.95;;;5.00;;
22470;SDS011;11402;51.374;6.594;2022-09-06T05:22:31;8.60;;;5.53;;
22470;SDS011;11402;51.374;6.594;2022-09-06T05:24:56;8.23;;;5.28;;
22470;SDS011;11402;51.374;6.594;2022-09-06T05:27:22;9.88;;;5.10;;
22470;SDS011;11402;51.374;6.594;2022-09-06T05:29:48;10.15;;;6.00;;
22470;SDS011;11402;51.374;6.594;2022-09-06T05:32:13;10.20;;;5.82;;
22470;SDS011;11402;51.374;6.594;2022-09-06T05:34:39;9.13;;;5.88;;
22470;SDS011;11402;51.374;6.594;2022-09-06T05:37:04;11.88;;;6.03;;
22470;SDS011;11402;51.374;6.594;2022-09-06T05:39:30;8.45;;;6.05;;
22470;SDS011;11402;51.374;6.594;2022-09-06T05:41:55;17.10;;;6.70;;
22470;SDS011;11402;51.374;6.594;2022-09-06T05:44:21;10.88;;;6.55;;
22470;SDS011;11402;51.374;6.594;2022-09-06T05:46:49;12.57;;;7.43;;
22470;SDS011;11402;51.374;6.594;2022-09-06T05:49:14;10.18;;;6.63;;
22470;SDS011;11402;51.374;6.594;2022-09-06T05:51:40;20.55;;;8.77;;
22470;SDS011;11402;51.374;6.594;2022-09-06T05:54:06;11.32;;;7.80;;
22470;SDS011;11402;51.374;6.594;2022-09-06T05:56:32;16.70;;;7.38;;
22470;SDS011;11402;51.374;6.594;2022-09-06T05:58:57;13.95;;;8.15;;
22470;SDS011;11402;51.374;6.594;2022-09-06T06:01:27;15.55;;;8.07;;
22470;SDS011;11402;51.374;6.594;2022-09-06T06:03:55;17.90;;;8.90;;
22470;SDS011;11402;51.374;6.594;2022-09-06T06:06:23;13.55;;;8.55;;
22470;SDS011;11402;51.374;6.594;2022-09-06T06:08:49;13.40;;;9.07;;
22470;SDS011;11402;51.374;6.594;2022-09-06T06:11:15;15.95;;;10.38;;
22470;SDS011;11402;51.374;6.594;2022-09-06T06:13:41;19.60;;;10.75;;
22470;SDS011;11402;51.374;6.594;2022-09-06T06:16:11;21.38;;;11.00;;
22470;SDS011;11402;51.374;6.594;2022-09-06T06:18:38;22.38;;;12.23;;
22470;SDS011;11402;51.374;6.594;2022-09-06T06:21:07;19.02;;;11.40;;
22470;SDS011;11402;51.374;6.594;2022-09-06T06:23:36;19.17;;;11.85;;
22470;SDS011;11402;51.374;6.594;2022-09-06T06:26:01;19.77;;;11.77;;
22470;SDS011;11402;51.374;6.594;2022-09-06T06:28:27;18.20;;;11.60;;
22470;SDS011;11402;51.374;6.594;2022-09-06T06:30:52;25.65;;;11.60;;
22470;SDS011;11402;51.374;6.594;2022-09-06T06:33:18;18.65;;;12.25;;
22470;SDS011;11402;51.374;6.594;2022-09-06T06:35:57;18.58;;;12.63;;
22470;SDS011;11402;51.374;6.594;2022-09-06T06:38:28;21.30;;;12.88;;
22470;SDS011;11402;51.374;6.594;2022-09-06T06:40:58;17.75;;;12.15;;
22470;SDS011;11402;51.374;6.594;2022-09-06T06:43:24;19.77;;;12.30;;
22470;SDS011;11402;51.374;6.594;2022-09-06T06:45:50;23.30;;;12.30;;
22470;SDS011;11402;51.374;6.594;2022-09-06T06:48:16;16.10;;;12.25;;
22470;SDS011;11402;51.374;6.594;2022-09-06T06:50:42;18.08;;;12.32;;
22470;SDS011;11402;51.374;6.594;2022-09-06T06:53:08;19.02;;;12.13;;
22470;SDS011;11402;51.374;6.594;2022-09-06T06:55:33;21.60;;;12.05;;
22470;SDS011;11402;51.374;6.594;2022-09-06T06:57:59;17.23;;;12.07;;
22470;SDS011;11402;51.374;6.594;2022-09-06T07:00:25;17.50;;;12.00;;
22470;SDS011;11402;51.374;6.594;2022-09-06T07:02:51;19.42;;;10.93;;
22470;SDS011;11402;51.374;6.594;2022-09-06T07:05:17;16.83;;;11.30;;
22470;SDS011;11402;51.374;6.594;2022-09-06T07:07:43;16.58;;;10.77;;
22470;SDS011;11402;51.374;6.594;2022-09-06T07:10:09;16.20;;;11.40;;
22470;SDS011;11402;51.374;6.594;2022-09-06T07:12:35;16.05;;;9.73;;
22470;SDS011;11402;51.374;6.594;2022-09-06T07:15:00;22.88;;;17.77;;
22470;SDS011;11402;51.374;6.594;2022-09-06T07:17:27;17.90;;;12.60;;
22470;SDS011;11402;51.374;6.594;2022-09-06T07:19:52;14.93;;;10.40;;
22470;SDS011;11402;51.374;6.594;2022-09-06T07:22:18;20.40;;;10.43;;
22470;SDS011;11402;51.374;6.594;2022-09-06T07:24:43;16.45;;;9.50;;
22470;SDS011;11402;51.374;6.594;2022-09-06T07:27:09;13.95;;;9.13;;
22470;SDS011;11402;51.374;6.594;2022-09-06T07:29:35;15.45;;;8.85;;
22470;SDS011;11402;51.374;6.594;2022-09-06T07:32:00;30.05;;;10.18;;
22470;SDS011;11402;51.374;6.594;2022-09-06T07:34:26;12.63;;;8.05;;
22470;SDS011;11402;51.374;6.594;2022-09-06T07:36:52;19.73;;;8.50;;
22470;SDS011;11402;51.374;6.594;2022-09-06T07:39:21;15.07;;;8.68;;
22470;SDS011;11402;51.374;6.594;2022-09-06T07:41:47;13.95;;;8.48;;
22470;SDS011;11402;51.374;6.594;2022-09-06T07:44:12;15.02;;;7.63;;
22470;SDS011;11402;51.374;6.594;2022-09-06T07:46:38;14.85;;;8.35;;
22470;SDS011;11402;51.374;6.594;2022-09-06T07:49:04;12.48;;;8.10;;
22470;SDS011;11402;51.374;6.594;2022-09-06T07:51:30;11.85;;;6.88;;
22470;SDS011;11402;51.374;6.594;2022-09-06T07:53:56;14.05;;;7.25;;
22470;SDS011;11402;51.374;6.594;2022-09-06T07:56:22;14.05;;;7.30;;
22470;SDS011;11402;51.374;6.594;2022-09-06T07:58:49;10.88;;;7.25;;
22470;SDS011;11402;51.374;6.594;2022-09-06T08:04:19;9.10;;;5.68;;
22470;SDS011;11402;51.374;6.594;2022-09-06T08:06:44;11.50;;;4.82;;
22470;SDS011;11402;51.374;6.594;2022-09-06T08:09:12;7.88;;;4.60;;
22470;SDS011;11402;51.374;6.594;2022-09-06T08:11:37;7.93;;;4.03;;
22470;SDS011;11402;51.374;6.594;2022-09-06T08:14:04;9.85;;;4.60;;
22470;SDS011;11402;51.374;6.594;2022-09-06T08:16:31;7.15;;;3.80;;
22470;SDS011;11402;51.374;6.594;2022-09-06T08:19:02;5.47;;;3.58;;
22470;SDS011;11402;51.374;6.594;2022-09-06T08:21:30;5.95;;;3.42;;
22470;SDS011;11402;51.374;6.594;2022-09-06T08:23:57;7.60;;;3.30;;
22470;SDS011;11402;51.374;6.594;2022-09-06T08:26:25;5.60;;;3.00;;
22470;SDS011;11402;51.374;6.594;2022-09-06T08:29:10;4.05;;;2.78;;
22470;SDS011;11402;51.374;6.594;2022-09-06T08:31:37;4.90;;;3.13;;
22470;SDS011;11402;51.374;6.594;2022-09-06T08:34:04;5.85;;;3.05;;
22470;SDS011;11402;51.374;6.594;2022-09-06T08:36:30;6.32;;;2.90;;
22470;SDS011;11402;51.374;6.594;2022-09-06T08:38:57;6.18;;;2.97;;
22470;SDS011;11402;51.374;6.594;2022-09-06T08:41:24;6.22;;;3.17;;
22470;SDS011;11402;51.374;6.594;2022-09-06T08:46:19;5.20;;;3.00;;
22470;SDS011;11402;51.374;6.594;2022-09-06T08:48:51;7.47;;;3.00;;
22470;SDS011;11402;51.374;6.594;2022-09-06T08:51:31;4.10;;;2.58;;
22470;SDS011;11402;51.374;6.594;2022-09-06T08:54:14;3.42;;;2.50;;
22470;SDS011;11402;51.374;6.594;2022-09-06T08:59:39;4.05;;;2.47;;
22470;SDS011;11402;51.374;6.594;2022-09-06T09:02:19;5.75;;;2.78;;
22470;SDS011;11402;51.374;6.594;2022-09-06T09:04:56;6.05;;;2.70;;
22470;SDS011;11402;51.374;6.594;2022-09-06T09:09:51;4.25;;;2.20;;
22470;SDS011;11402;51.374;6.594;2022-09-06T09:12:20;4.63;;;2.30;;
22470;SDS011;11402;51.374;6.594;2022-09-06T09:14:47;5.20;;;2.25;;
22470;SDS011;11402;51.374;6.594;2022-09-06T09:17:20;6.55;;;2.10;;
22470;SDS011;11402;51.374;6.594;2022-09-06T09:19:49;4.35;;;2.10;;
22470;SDS011;11402;51.374;6.594;2022-09-06T09:22:16;6.72;;;2.30;;
22470;SDS011;11402;51.374;6.594;2022-09-06T09:24:43;4.85;;;2.15;;
22470;SDS011;11402;51.374;6.594;2022-09-06T09:27:11;3.65;;;2.33;;
22470;SDS011;11402;51.374;6.594;2022-09-06T09:29:55;6.20;;;1.90;;
22470;SDS011;11402;51.374;6.594;2022-09-06T09:32:40;3.85;;;1.95;;
22470;SDS011;11402;51.374;6.594;2022-09-06T09:35:14;2.20;;;1.80;;
22470;SDS011;11402;51.374;6.594;2022-09-06T09:37:47;4.00;;;1.77;;
22470;SDS011;11402;51.374;6.594;2022-09-06T09:42:48;4.38;;;2.10;;
22470;SDS011;11402;51.374;6.594;2022-09-06T09:45:27;7.57;;;2.08;;
22470;SDS011;11402;51.374;6.594;2022-09-06T09:47:54;4.10;;;1.80;;
22470;SDS011;11402;51.374;6.594;2022-09-06T09:50:32;3.95;;;1.77;;
22470;SDS011;11402;51.374;6.594;2022-09-06T09:53:09;5.03;;;1.75;;
22470;SDS011;11402;51.374;6.594;2022-09-06T09:55:37;4.90;;;1.80;;
22470;SDS011;11402;51.374;6.594;2022-09-06T09:58:03;5.28;;;1.90;;
22470;SDS011;11402;51.374;6.594;2022-09-06T10:00:36;3.67;;;2.13;;
22470;SDS011;11402;51.374;6.594;2022-09-06T10:03:13;5.53;;;1.77;;
22470;SDS011;11402;51.374;6.594;2022-09-06T10:05:41;3.00;;;1.77;;
22470;SDS011;11402;51.374;6.594;2022-09-06T10:08:18;3.97;;;1.60;;
22470;SDS011;11402;51.374;6.594;2022-09-06T10:10:48;4.68;;;1.80;;
22470;SDS011;11402;51.374;6.594;2022-09-06T10:13:24;5.38;;;1.92;;
22470;SDS011;11402;51.374;6.594;2022-09-06T10:15:54;4.38;;;2.10;;
22470;SDS011;11402;51.374;6.594;2022-09-06T10:18:29;3.65;;;2.13;;
22470;SDS011;11402;51.374;6.594;2022-09-06T10:21:05;8.50;;;1.83;;
22470;SDS011;11402;51.374;6.594;2022-09-06T10:23:40;3.80;;;2.15;;
22470;SDS011;11402;51.374;6.594;2022-09-06T10:26:34;3.35;;;1.73;;
22470;SDS011;11402;51.374;6.594;2022-09-06T10:29:08;4.47;;;2.13;;
22470;SDS011;11402;51.374;6.594;2022-09-06T10:31:46;4.85;;;2.00;;
22470;SDS011;11402;51.374;6.594;2022-09-06T10:39:57;4.82;;;2.10;;
22470;SDS011;11402;51.374;6.594;2022-09-06T10:42:39;4.43;;;1.75;;
22470;SDS011;11402;51.374;6.594;2022-09-06T10:50:57;4.80;;;1.80;;
22470;SDS011;11402;51.374;6.594;2022-09-06T10:53:32;4.13;;;1.80;;
22470;SDS011;11402;51.374;6.594;2022-09-06T10:56:34;6.88;;;2.10;;
22470;SDS011;11402;51.374;6.594;2022-09-06T10:59:07;5.47;;;1.80;;
22470;SDS011;11402;51.374;6.594;2022-09-06T11:01:54;6.07;;;2.00;;
22470;SDS011;11402;51.374;6.594;2022-09-06T11:04:26;5.53;;;1.90;;
22470;SDS011;11402;51.374;6.594;2022-09-06T11:06:58;3.47;;;1.98;;
22470;SDS011;11402;51.374;6.594;2022-09-06T11:09:38;5.38;;;1.90;;
22470;SDS011;11402;51.374;6.594;2022-09-06T11:12:13;3.20;;;1.70;;
22470;SDS011;11402;51.374;6.594;2022-09-06T11:14:49;4.35;;;1.75;;
22470;SDS011;11402;51.374;6.594;2022-09-06T11:20:02;2.70;;;1.90;;
22470;SDS011;11402;51.374;6.594;2022-09-06T11:22:50;4.22;;;2.10;;
22470;SDS011;11402;51.374;6.594;2022-09-06T11:28:14;2.95;;;2.00;;
22470;SDS011;11402;51.374;6.594;2022-09-06T11:30:46;5.25;;;2.20;;
22470;SDS011;11402;51.374;6.594;2022-09-06T11:33:21;3.38;;;1.58;;
22470;SDS011;11402;51.374;6.594;2022-09-06T11:39:02;4.45;;;1.73;;
22470;SDS011;11402;51.374;6.594;2022-09-06T11:41:30;4.15;;;1.90;;
22470;SDS011;11402;51.374;6.594;2022-09-06T11:43:59;4.78;;;2.10;;
22470;SDS011;11402;51.374;6.594;2022-09-06T11:49:06;3.42;;;1.70;;
22470;SDS011;11402;51.374;6.594;2022-09-06T11:51:34;6.35;;;1.92;;
22470;SDS011;11402;51.374;6.594;2022-09-06T11:54:16;4.57;;;1.90;;
22470;SDS011;11402;51.374;6.594;2022-09-06T12:04:20;4.43;;;1.63;;
22470;SDS011;11402;51.374;6.594;2022-09-06T12:09:36;3.90;;;1.63;;
22470;SDS011;11402;51.374;6.594;2022-09-06T12:12:03;6.25;;;2.05;;
22470;SDS011;11402;51.374;6.594;2022-09-06T12:14:34;5.80;;;2.88;;
22470;SDS011;11402;51.374;6.594;2022-09-06T12:19:41;4.28;;;1.90;;
22470;SDS011;11402;51.374;6.594;2022-09-06T12:24:56;7.57;;;1.85;;
22470;SDS011;11402;51.374;6.594;2022-09-06T12:27:55;4.57;;;1.75;;
22470;SDS011;11402;51.374;6.594;2022-09-06T12:30:56;6.13;;;1.85;;
22470;SDS011;11402;51.374;6.594;2022-09-06T12:38:54;4.95;;;1.67;;
22470;SDS011;11402;51.374;6.594;2022-09-06T12:41:28;7.20;;;1.92;;
22470;SDS011;11402;51.374;6.594;2022-09-06T12:44:00;6.93;;;1.77;;
22470;SDS011;11402;51.374;6.594;2022-09-06T12:46:29;9.25;;;1.90;;
22470;SDS011;11402;51.374;6.594;2022-09-06T12:49:06;5.18;;;1.70;;
22470;SDS011;11402;51.374;6.594;2022-09-06T12:51:34;12.00;;;1.77;;
22470;SDS011;11402;51.374;6.594;2022-09-06T12:54:02;4.97;;;1.58;;
22470;SDS011;11402;51.374;6.594;2022-09-06T12:56:30;7.28;;;1.80;;
22470;SDS011;11402;51.374;6.594;2022-09-06T13:01:58;8.18;;;1.85;;
22470;SDS011;11402;51.374;6.594;2022-09-06T13:07:03;2.75;;;1.65;;
22470;SDS011;11402;51.374;6.594;2022-09-06T13:09:32;6.47;;;3.20;;
22470;SDS011;11402;51.374;6.594;2022-09-06T13:12:02;5.05;;;1.60;;
22470;SDS011;11402;51.374;6.594;2022-09-06T13:14:50;5.40;;;1.50;;
22470;SDS011;11402;51.374;6.594;2022-09-06T13:17:26;3.90;;;1.45;;
22470;SDS011;11402;51.374;6.594;2022-09-06T13:19:54;5.07;;;1.75;;
22470;SDS011;11402;51.374;6.594;2022-09-06T13:25:22;3.95;;;1.60;;
22470;SDS011;11402;51.374;6.594;2022-09-06T13:27:50;4.03;;;1.60;;
22470;SDS011;11402;51.374;6.594;2022-09-06T13:33:06;8.25;;;1.77;;
22470;SDS011;11402;51.374;6.594;2022-09-06T13:35:44;7.05;;;1.65;;
22470;SDS011;11402;51.374;6.594;2022-09-06T13:38:20;4.93;;;1.67;;
22470;SDS011;11402;51.374;6.594;2022-09-06T13:40:53;2.95;;;1.20;;
22470;SDS011;11402;51.374;6.594;2022-09-06T13:43:22;4.18;;;1.20;;
22470;SDS011;11402;51.374;6.594;2022-09-06T13:46:02;3.53;;;1.20;;
22470;SDS011;11402;51.374;6.594;2022-09-06T13:48:31;4.10;;;1.10;;
22470;SDS011;11402;51.374;6.594;2022-09-06T13:50:57;3.42;;;1.08;;
22470;SDS011;11402;51.374;6.594;2022-09-06T13:53:23;3.55;;;1.17;;
22470;SDS011;11402;51.374;6.594;2022-09-06T13:55:49;3.08;;;1.15;;
22470;SDS011;11402;51.374;6.594;2022-09-06T13:58:16;3.10;;;1.00;;
22470;SDS011;11402;51.374;6.594;2022-09-06T14:00:42;4.18;;;1.42;;
22470;SDS011;11402;51.374;6.594;2022-09-06T14:03:08;2.67;;;1.05;;
22470;SDS011;11402;51.374;6.594;2022-09-06T14:05:45;3.38;;;1.45;;
22470;SDS011;11402;51.374;6.594;2022-09-06T14:08:11;2.50;;;1.30;;
22470;SDS011;11402;51.374;6.594;2022-09-06T14:10:36;3.13;;;1.27;;
22470;SDS011;11402;51.374;6.594;2022-09-06T14:13:02;4.47;;;1.35;;
22470;SDS011;11402;51.374;6.594;2022-09-06T14:15:28;2.78;;;1.17;;
22470;SDS011;11402;51.374;6.594;2022-09-06T14:17:53;4.15;;;1.50;;
22470;SDS011;11402;51.374;6.594;2022-09-06T14:20:19;2.58;;;1.20;;
22470;SDS011;11402;51.374;6.594;2022-09-06T14:22:45;5.13;;;1.25;;
22470;SDS011;11402;51.374;6.594;2022-09-06T14:25:11;3.67;;;1.25;;
22470;SDS011;11402;51.374;6.594;2022-09-06T14:27:37;3.00;;;1.20;;
22470;SDS011;11402;51.374;6.594;2022-09-06T14:30:03;3.20;;;1.30;;
22470;SDS011;11402;51.374;6.594;2022-09-06T14:32:29;3.05;;;1.10;;
22470;SDS011;11402;51.374;6.594;2022-09-06T14:34:54;2.42;;;0.98;;
22470;SDS011;11402;51.374;6.594;2022-09-06T14:37:20;3.53;;;1.10;;
22470;SDS011;11402;51.374;6.594;2022-09-06T14:39:46;1.65;;;0.98;;
22470;SDS011;11402;51.374;6.594;2022-09-06T14:42:12;2.17;;;1.20;;
22470;SDS011;11402;51.374;6.594;2022-09-06T14:44:38;4.32;;;1.13;;
22470;SDS011;11402;51.374;6.594;2022-09-06T14:47:05;3.13;;;1.17;;
22470;SDS011;11402;51.374;6.594;2022-09-06T14:49:30;3.83;;;1.17;;
22470;SDS011;11402;51.374;6.594;2022-09-06T14:51:56;4.05;;;1.40;;
22470;SDS011;11402;51.374;6.594;2022-09-06T14:54:21;5.72;;;1.60;;
22470;SDS011;11402;51.374;6.594;2022-09-06T14:56:47;4.82;;;1.50;;
22470;SDS011;11402;51.374;6.594;2022-09-06T14:59:13;3.05;;;1.40;;
22470;SDS011;11402;51.374;6.594;2022-09-06T15:01:38;3.95;;;1.20;;
22470;SDS011;11402;51.374;6.594;2022-09-06T15:04:06;4.72;;;1.30;;
22470;SDS011;11402;51.374;6.594;2022-09-06T15:06:33;3.65;;;1.40;;
22470;SDS011;11402;51.374;6.594;2022-09-06T15:09:00;2.22;;;1.10;;
22470;SDS011;11402;51.374;6.594;2022-09-06T15:13:58;2.78;;;1.30;;
22470;SDS011;11402;51.374;6.594;2022-09-06T15:16:28;5.32;;;1.23;;
22470;SDS011;11402;51.374;6.594;2022-09-06T15:18:54;4.50;;;1.20;;
22470;SDS011;11402;51.374;6.594;2022-09-06T15:21:19;2.20;;;1.10;;
22470;SDS011;11402;51.374;6.594;2022-09-06T15:23:46;5.82;;;1.38;;
22470;SDS011;11402;51.374;6.594;2022-09-06T15:26:12;2.88;;;1.35;;
22470;SDS011;11402;51.374;6.594;2022-09-06T15:28:39;3.00;;;1.13;;
22470;SDS011;11402;51.374;6.594;2022-09-06T15:31:06;2.97;;;1.20;;
22470;SDS011;11402;51.374;6.594;2022-09-06T15:33:33;3.65;;;1.42;;
22470;SDS011;11402;51.374;6.594;2022-09-06T15:35:59;2.80;;;1.23;;
22470;SDS011;11402;51.374;6.594;2022-09-06T15:38:30;2.85;;;1.27;;
22470;SDS011;11402;51.374;6.594;2022-09-06T15:41:03;2.05;;;1.15;;
22470;SDS011;11402;51.374;6.594;2022-09-06T15:43:31;2.88;;;1.15;;
22470;SDS011;11402;51.374;6.594;2022-09-06T15:45:57;2.40;;;1.42;;
22470;SDS011;11402;51.374;6.594;2022-09-06T15:48:24;4.72;;;1.50;;
22470;SDS011;11402;51.374;6.594;2022-09-06T15:50:50;2.15;;;1.33;;
22470;SDS011;11402;51.374;6.594;2022-09-06T15:53:16;4.75;;;1.10;;
22470;SDS011;11402;51.374;6.594;2022-09-06T15:55:42;3.50;;;1.30;;
22470;SDS011;11402;51.374;6.594;2022-09-06T15:58:21;1.80;;;1.25;;
22470;SDS011;11402;51.374;6.594;2022-09-06T16:01:07;3.53;;;1.52;;
22470;SDS011;11402;51.374;6.594;2022-09-06T16:03:44;4.35;;;1.77;;
22470;SDS011;11402;51.374;6.594;2022-09-06T16:06:21;3.30;;;1.90;;
22470;SDS011;11402;51.374;6.594;2022-09-06T16:08:49;2.83;;;1.10;;
22470;SDS011;11402;51.374;6.594;2022-09-06T16:11:16;2.45;;;1.23;;
22470;SDS011;11402;51.374;6.594;2022-09-06T16:13:43;2.80;;;1.48;;
22470;SDS011;11402;51.374;6.594;2022-09-06T16:16:13;4.25;;;1.23;;
22470;SDS011;11402;51.374;6.594;2022-09-06T16:18:40;4.93;;;1.17;;
22470;SDS011;11402;51.374;6.594;2022-09-06T16:21:15;6.32;;;1.30;;
22470;SDS011;11402;51.374;6.594;2022-09-06T16:23:48;3.90;;;1.10;;
22470;SDS011;11402;51.374;6.594;2022-09-06T16:26:15;4.68;;;1.23;;
22470;SDS011;11402;51.374;6.594;2022-09-06T16:28:41;3.08;;;1.10;;
22470;SDS011;11402;51.374;6.594;2022-09-06T16:31:08;1.73;;;1.20;;
22470;SDS011;11402;51.374;6.594;2022-09-06T16:33:34;3.45;;;1.10;;
22470;SDS011;11402;51.374;6.594;2022-09-06T16:36:02;3.20;;;1.10;;
22470;SDS011;11402;51.374;6.594;2022-09-06T16:38:30;3.85;;;1.13;;